sensor_id;sensor_type;location;lat;lon;timestamp;pressure;altitude;pressure_sealevel;temperature;humidity
19789;BME280;10054;59.332;18.244;2023-04-05T00:01:09;102048.28;;;-2.11;100.00
19789;BME280;10054;59.332;18.244;2023-04-05T00:03:39;102045.22;;;-2.15;100.00
19789;BME280;10054;59.332;18.244;2023-04-05T00:06:09;102049.50;;;-2.17;100.00
19789;BME280;10054;59.332;18.244;2023-04-05T00:08:39;102044.72;;;-2.21;100.00
19789;BME280;10054;59.332;18.244;2023-04-05T00:11:08;102040.83;;;-2.24;100.00
19789;BME280;10054;59.332;18.244;2023-04-05T00:13:37;102042.97;;;-2.25;100.00
19789;BME280;10054;59.332;18.244;2023-04-05T00:16:06;102038.21;;;-2.27;100.00
19789;BME280;10054;59.332;18.244;2023-04-05T00:18:36;102045.52;;;-2.28;100.00
19789;BME280;10054;59.332;18.244;2023-04-05T00:21:05;102033.00;;;-2.30;100.00
19789;BME280;10054;59.332;18.244;2023-04-05T00:23:34;102039.91;;;-2.29;100.00
19789;BME280;10054;59.332;18.244;2023-04-05T00:26:05;102032.58;;;-2.29;100.00
19789;BME280;10054;59.332;18.244;2023-04-05T00:28:36;102036.87;;;-2.30;100.00
19789;BME280;10054;59.332;18.244;2023-04-05T00:31:05;102038.95;;;-2.36;100.00
19789;BME280;10054;59.332;18.244;2023-04-05T00:33:34;102035.47;;;-2.39;100.00
19789;BME280;10054;59.332;18.244;2023-04-05T00:36:13;102030.26;;;-2.42;100.00
19789;BME280;10054;59.332;18.244;2023-04-05T00:38:44;102029.37;;;-2.44;100.00
19789;BME280;10054;59.332;18.244;2023-04-05T00:41:13;102032.33;;;-2.48;100.00
19789;BME280;10054;59.332;18.244;2023-04-05T00:43:43;102028.42;;;-2.51;100.00
19789;BME280;10054;59.332;18.244;2023-04-05T00:46:12;102024.52;;;-2.52;100.00
19789;BME280;10054;59.332;18.244;2023-04-05T00:48:41;102021.05;;;-2.54;100.00
19789;BME280;10054;59.332;18.244;2023-04-05T00:51:10;102017.58;;;-2.56;100.00
19789;BME280;10054;59.332;18.244;2023-04-05T00:53:39;102021.00;;;-2.57;100.00
19789;BME280;10054;59.332;18.244;2023-04-05T00:56:10;102020.14;;;-2.58;100.00
19789;BME280;10054;59.332;18.244;2023-04-05T00:58:40;102021.43;;;-2.58;100.00
19789;BME280;10054;59.332;18.244;2023-04-05T01:01:19;102027.02;;;-2.58;100.00
19789;BME280;10054;59.332;18.244;2023-04-05T01:03:58;102017.94;;;-2.61;100.00
19789;BME280;10054;59.332;18.244;2023-04-05T01:06:39;102014.06;;;-2.61;100.00
19789;BME280;10054;59.332;18.244;2023-04-05T01:11:55;102012.70;;;-2.66;100.00
19789;BME280;10054;59.332;18.244;2023-04-05T01:14:24;102013.55;;;-2.67;100.00
19789;BME280;10054;59.332;18.244;2023-04-05T01:16:53;102004.06;;;-2.68;100.00
19789;BME280;10054;59.332;18.244;2023-04-05T01:19:29;102000.59;;;-2.70;100.00
19789;BME280;10054;59.332;18.244;2023-04-05T01:22:09;102004.45;;;-2.72;100.00
19789;BME280;10054;59.332;18.244;2023-04-05T01:24:43;102001.42;;;-2.73;100.00
19789;BME280;10054;59.332;18.244;2023-04-05T01:30:12;101999.34;;;-2.67;100.00
19789;BME280;10054;59.332;18.244;2023-04-05T01:32:47;101993.08;;;-2.53;100.00
19789;BME280;10054;59.332;18.244;2023-04-05T01:35:33;101986.58;;;-2.56;100.00
19789;BME280;10054;59.332;18.244;2023-04-05T01:38:03;101983.88;;;-2.66;100.00
19789;BME280;10054;59.332;18.244;2023-04-05T01:40:29;101983.34;;;-2.73;100.00
19789;BME280;10054;59.332;18.244;2023-04-05T01:43:00;101988.00;;;-2.78;100.00
19789;BME280;10054;59.332;18.244;2023-04-05T01:45:30;101986.64;;;-2.83;100.00
19789;BME280;10054;59.332;18.244;2023-04-05T01:47:58;101983.57;;;-2.87;100.00
19789;BME280;10054;59.332;18.244;2023-04-05T01:50:27;101989.14;;;-2.89;100.00
19789;BME280;10054;59.332;18.244;2023-04-05T01:52:56;101983.06;;;-2.92;100.00
19789;BME280;10054;59.332;18.244;2023-04-05T01:55:24;101980.44;;;-2.95;100.00
19789;BME280;10054;59.332;18.244;2023-04-05T01:57:54;101984.28;;;-2.97;100.00
19789;BME280;10054;59.332;18.244;2023-04-05T02:00:24;101979.11;;;-3.00;100.00
19789;BME280;10054;59.332;18.244;2023-04-05T02:02:54;101981.64;;;-3.03;100.00
19789;BME280;10054;59.332;18.244;2023-04-05T02:05:23;101976.45;;;-3.05;100.00
19789;BME280;10054;59.332;18.244;2023-04-05T02:07:52;101982.48;;;-3.04;100.00
19789;BME280;10054;59.332;18.244;2023-04-05T02:10:22;101984.62;;;-3.05;100.00
19789;BME280;10054;59.332;18.244;2023-04-05T02:12:50;101979.88;;;-3.06;100.00
19789;BME280;10054;59.332;18.244;2023-04-05T02:15:19;101973.01;;;-3.05;100.00
19789;BME280;10054;59.332;18.244;2023-04-05T02:17:48;101968.27;;;-3.06;100.00
19789;BME280;10054;59.332;18.244;2023-04-05T02:20:20;101971.70;;;-3.07;100.00
19789;BME280;10054;59.332;18.244;2023-04-05T02:22:49;101972.56;;;-3.06;100.00
19789;BME280;10054;59.332;18.244;2023-04-05T02:25:18;101973.01;;;-3.05;100.00
19789;BME280;10054;59.332;18.244;2023-04-05T02:27:47;101969.56;;;-3.06;100.00
19789;BME280;10054;59.332;18.244;2023-04-05T02:30:16;101964.82;;;-3.06;100.00
19789;BME280;10054;59.332;18.244;2023-04-05T02:32:45;101958.77;;;-3.08;100.00
19789;BME280;10054;59.332;18.244;2023-04-05T02:35:14;101963.93;;;-3.08;100.00
19789;BME280;10054;59.332;18.244;2023-04-05T02:37:43;101963.62;;;-3.00;100.00
19789;BME280;10054;59.332;18.244;2023-04-05T02:40:14;101961.06;;;-2.99;100.00
19789;BME280;10054;59.332;18.244;2023-04-05T02:42:43;101962.28;;;-3.03;100.00
19789;BME280;10054;59.332;18.244;2023-04-05T02:45:12;101957.45;;;-3.10;100.00
19789;BME280;10054;59.332;18.244;2023-04-05T02:47:41;101950.48;;;-3.15;100.00
19789;BME280;10054;59.332;18.244;2023-04-05T02:50:10;101952.11;;;-3.22;100.00
19789;BME280;10054;59.332;18.244;2023-04-05T02:52:40;101945.19;;;-3.24;100.00
19789;BME280;10054;59.332;18.244;2023-04-05T02:55:09;101940.00;;;-3.26;100.00
19789;BME280;10054;59.332;18.244;2023-04-05T02:57:38;101940.41;;;-3.28;100.00
19789;BME280;10054;59.332;18.244;2023-04-05T03:00:09;101937.80;;;-3.29;100.00
19789;BME280;10054;59.332;18.244;2023-04-05T03:02:41;101940.78;;;-3.32;100.00
19789;BME280;10054;59.332;18.244;2023-04-05T03:05:12;101939.41;;;-3.36;100.00
19789;BME280;10054;59.332;18.244;2023-04-05T03:07:42;101933.36;;;-3.38;100.00
19789;BME280;10054;59.332;18.244;2023-04-05T03:10:16;101933.39;;;-3.37;100.00
19789;BME280;10054;59.332;18.244;2023-04-05T03:12:50;101935.55;;;-3.36;100.00
19789;BME280;10054;59.332;18.244;2023-04-05T03:15:20;101926.09;;;-3.36;100.00
19789;BME280;10054;59.332;18.244;2023-04-05T03:17:49;101927.85;;;-3.33;100.00
19789;BME280;10054;59.332;18.244;2023-04-05T03:20:18;101933.02;;;-3.33;100.00
19789;BME280;10054;59.332;18.244;2023-04-05T03:22:48;101929.55;;;-3.35;100.00
19789;BME280;10054;59.332;18.244;2023-04-05T03:25:17;101931.02;;;-3.23;100.00
19789;BME280;10054;59.332;18.244;2023-04-05T03:27:47;101924.32;;;-3.10;100.00
19789;BME280;10054;59.332;18.244;2023-04-05T03:30:19;101929.89;;;-3.12;100.00
19789;BME280;10054;59.332;18.244;2023-04-05T03:32:52;101927.23;;;-3.17;100.00
19789;BME280;10054;59.332;18.244;2023-04-05T03:35:23;101925.02;;;-3.22;100.00
19789;BME280;10054;59.332;18.244;2023-04-05T03:37:52;101919.83;;;-3.23;100.00
19789;BME280;10054;59.332;18.244;2023-04-05T03:40:22;101917.18;;;-3.28;100.00
19789;BME280;10054;59.332;18.244;2023-04-05T03:42:51;101919.73;;;-3.29;100.00
19789;BME280;10054;59.332;18.244;2023-04-05T03:45:20;101921.42;;;-3.32;100.00
19789;BME280;10054;59.332;18.244;2023-04-05T03:47:49;101921.87;;;-3.31;100.00
19789;BME280;10054;59.332;18.244;2023-04-05T03:50:18;101927.03;;;-3.31;100.00
19789;BME280;10054;59.332;18.244;2023-04-05T03:52:47;101918.42;;;-3.31;100.00
19789;BME280;10054;59.332;18.244;2023-04-05T03:55:17;101913.69;;;-3.32;100.00
19789;BME280;10054;59.332;18.244;2023-04-05T03:57:47;101922.69;;;-3.33;100.00
19789;BME280;10054;59.332;18.244;2023-04-05T04:00:17;101918.37;;;-3.34;100.00
19789;BME280;10054;59.332;18.244;2023-04-05T04:02:49;101921.36;;;-3.36;100.00
19789;BME280;10054;59.332;18.244;2023-04-05T04:05:21;101913.62;;;-3.36;100.00
19789;BME280;10054;59.332;18.244;2023-04-05T04:07:52;101913.20;;;-3.36;100.00
19789;BME280;10054;59.332;18.244;2023-04-05T04:10:21;101912.82;;;-3.32;100.00
19789;BME280;10054;59.332;18.244;2023-04-05T04:12:52;101917.16;;;-3.29;100.00
19789;BME280;10054;59.332;18.244;2023-04-05T04:15:22;101913.28;;;-3.29;100.00
19789;BME280;10054;59.332;18.244;2023-04-05T04:18:08;101910.73;;;-3.28;100.00
19789;BME280;10054;59.332;18.244;2023-04-05T04:20:40;101917.25;;;-3.23;100.00
19789;BME280;10054;59.332;18.244;2023-04-05T04:23:23;101909.97;;;-3.21;100.00
19789;BME280;10054;59.332;18.244;2023-04-05T04:26:04;101914.75;;;-3.17;100.00
19789;BME280;10054;59.332;18.244;2023-04-05T04:28:34;101914.78;;;-3.16;100.00
19789;BME280;10054;59.332;18.244;2023-04-05T04:31:13;101910.95;;;-3.13;100.00
19789;BME280;10054;59.332;18.244;2023-04-05T04:33:51;101913.69;;;-3.02;100.00
19789;BME280;10054;59.332;18.244;2023-04-05T04:36:18;101926.36;;;-2.85;100.00
19789;BME280;10054;59.332;18.244;2023-04-05T04:38:56;101924.67;;;-2.83;100.00
19789;BME280;10054;59.332;18.244;2023-04-05T04:41:29;101925.98;;;-2.81;100.00
19789;BME280;10054;59.332;18.244;2023-04-05T04:44:13;101927.72;;;-2.80;100.00
19789;BME280;10054;59.332;18.244;2023-04-05T04:46:43;101923.48;;;-2.75;100.00
19789;BME280;10054;59.332;18.244;2023-04-05T04:49:14;101921.37;;;-2.71;100.00
19789;BME280;10054;59.332;18.244;2023-04-05T04:51:49;101926.62;;;-2.65;100.00
19789;BME280;10054;59.332;18.244;2023-04-05T04:54:20;101923.69;;;-2.58;100.00
19789;BME280;10054;59.332;18.244;2023-04-05T04:56:49;101914.28;;;-2.53;100.00
19789;BME280;10054;59.332;18.244;2023-04-05T04:59:18;101915.61;;;-2.50;100.00
19789;BME280;10054;59.332;18.244;2023-04-05T05:01:47;101917.84;;;-2.44;100.00
19789;BME280;10054;59.332;18.244;2023-04-05T05:04:16;101919.62;;;-2.38;100.00
19789;BME280;10054;59.332;18.244;2023-04-05T05:06:45;101913.64;;;-2.34;100.00
19789;BME280;10054;59.332;18.244;2023-04-05T05:09:14;101911.55;;;-2.28;100.00
19789;BME280;10054;59.332;18.244;2023-04-05T05:11:47;101910.72;;;-2.26;100.00
19789;BME280;10054;59.332;18.244;2023-04-05T05:14:16;101910.75;;;-2.20;100.00
19789;BME280;10054;59.332;18.244;2023-04-05T05:16:45;101906.45;;;-2.18;100.00
19789;BME280;10054;59.332;18.244;2023-04-05T05:19:13;101909.09;;;-2.13;100.00
19789;BME280;10054;59.332;18.244;2023-04-05T05:21:46;101899.22;;;-2.09;100.00
19789;BME280;10054;59.332;18.244;2023-04-05T05:24:16;101907.45;;;-2.05;100.00
19789;BME280;10054;59.332;18.244;2023-04-05T05:26:45;101910.08;;;-2.01;100.00
19789;BME280;10054;59.332;18.244;2023-04-05T05:29:14;101909.25;;;-1.96;100.00
19789;BME280;10054;59.332;18.244;2023-04-05T05:31:44;101899.82;;;-1.91;100.00
19789;BME280;10054;59.332;18.244;2023-04-05T05:34:13;101895.11;;;-1.89;100.00
19789;BME280;10054;59.332;18.244;2023-04-05T05:36:43;101892.12;;;-1.85;100.00
19789;BME280;10054;59.332;18.244;2023-04-05T05:39:13;101892.14;;;-1.82;100.00
19789;BME280;10054;59.332;18.244;2023-04-05T05:41:43;101896.92;;;-1.79;100.00
19789;BME280;10054;59.332;18.244;2023-04-05T05:44:12;101895.69;;;-1.71;100.00
19789;BME280;10054;59.332;18.244;2023-04-05T05:46:42;101898.30;;;-1.68;100.00
19789;BME280;10054;59.332;18.244;2023-04-05T05:49:10;101891.86;;;-1.65;100.00
19789;BME280;10054;59.332;18.244;2023-04-05T05:51:39;101882.83;;;-1.62;100.00
19789;BME280;10054;59.332;18.244;2023-04-05T05:54:08;101888.89;;;-1.58;100.00
19789;BME280;10054;59.332;18.244;2023-04-05T05:56:37;101882.88;;;-1.56;100.00
19789;BME280;10054;59.332;18.244;2023-04-05T05:59:06;101885.48;;;-1.53;100.00
19789;BME280;10054;59.332;18.244;2023-04-05T06:01:35;101877.31;;;-1.49;100.00
19789;BME280;10054;59.332;18.244;2023-04-05T06:04:04;101873.42;;;-1.46;100.00
19789;BME280;10054;59.332;18.244;2023-04-05T06:06:33;101873.87;;;-1.44;100.00
19789;BME280;10054;59.332;18.244;2023-04-05T06:09:02;101864.83;;;-1.41;100.00
19789;BME280;10054;59.332;18.244;2023-04-05T06:11:31;101866.16;;;-1.36;100.00
19789;BME280;10054;59.332;18.244;2023-04-05T06:13:59;101864.88;;;-1.33;100.00
19789;BME280;10054;59.332;18.244;2023-04-05T06:16:28;101856.28;;;-1.29;100.00
19789;BME280;10054;59.332;18.244;2023-04-05T06:18:57;101859.77;;;-1.22;100.00
19789;BME280;10054;59.332;18.244;2023-04-05T06:21:26;101850.73;;;-1.19;100.00
19789;BME280;10054;59.332;18.244;2023-04-05T06:23:55;101845.14;;;-1.14;100.00
19789;BME280;10054;59.332;18.244;2023-04-05T06:26:25;101842.16;;;-1.08;100.00
19789;BME280;10054;59.332;18.244;2023-04-05T06:28:56;101835.28;;;-1.01;100.00
19789;BME280;10054;59.332;18.244;2023-04-05T06:31:32;101836.17;;;-0.94;100.00
19789;BME280;10054;59.332;18.244;2023-04-05T06:34:02;101836.63;;;-0.89;100.00
19789;BME280;10054;59.332;18.244;2023-04-05T06:36:31;101831.48;;;-0.81;100.00
19789;BME280;10054;59.332;18.244;2023-04-05T06:39:01;101834.50;;;-0.73;100.00
19789;BME280;10054;59.332;18.244;2023-04-05T06:41:29;101830.63;;;-0.67;100.00
19789;BME280;10054;59.332;18.244;2023-04-05T06:43:58;101828.06;;;-0.59;100.00
19789;BME280;10054;59.332;18.244;2023-04-05T06:46:28;101821.59;;;-0.56;100.00
19789;BME280;10054;59.332;18.244;2023-04-05T06:48:58;101826.78;;;-0.50;100.00
19789;BME280;10054;59.332;18.244;2023-04-05T06:51:27;101823.34;;;-0.41;100.00
19789;BME280;10054;59.332;18.244;2023-04-05T06:53:57;101823.80;;;-0.34;100.00
19789;BME280;10054;59.332;18.244;2023-04-05T06:56:26;101838.50;;;-0.25;100.00
19789;BME280;10054;59.332;18.244;2023-04-05T06:58:55;101837.22;;;-0.15;100.00
19789;BME280;10054;59.332;18.244;2023-04-05T07:01:25;101840.25;;;-0.06;100.00
19789;BME280;10054;59.332;18.244;2023-04-05T07:03:54;101840.25;;;0.00;100.00
19789;BME280;10054;59.332;18.244;2023-04-05T07:06:23;101838.49;;;0.07;100.00
19789;BME280;10054;59.332;18.244;2023-04-05T07:08:52;101828.55;;;0.08;100.00
19789;BME280;10054;59.332;18.244;2023-04-05T07:11:21;101834.60;;;0.08;100.00
19789;BME280;10054;59.332;18.244;2023-04-05T07:13:49;101831.58;;;0.13;100.00
19789;BME280;10054;59.332;18.244;2023-04-05T07:16:18;101840.22;;;0.12;100.00
19789;BME280;10054;59.332;18.244;2023-04-05T07:18:48;101848.00;;;0.06;100.00
19789;BME280;10054;59.332;18.244;2023-04-05T07:21:17;101854.92;;;0.03;100.00
19789;BME280;10054;59.332;18.244;2023-04-05T07:23:46;101852.33;;;0.03;100.00
19789;BME280;10054;59.332;18.244;2023-04-05T07:26:15;101856.66;;;0.07;100.00
19789;BME280;10054;59.332;18.244;2023-04-05T07:28:44;101857.52;;;0.07;100.00
19789;BME280;10054;59.332;18.244;2023-04-05T07:31:14;101852.77;;;0.08;100.00
19789;BME280;10054;59.332;18.244;2023-04-05T07:33:43;101851.89;;;0.11;100.00
19789;BME280;10054;59.332;18.244;2023-04-05T07:36:12;101856.22;;;0.16;100.00
19789;BME280;10054;59.332;18.244;2023-04-05T07:38:41;101844.98;;;0.20;100.00
19789;BME280;10054;59.332;18.244;2023-04-05T07:41:11;101851.89;;;0.35;100.00
19789;BME280;10054;59.332;18.244;2023-04-05T07:43:41;101854.91;;;0.39;100.00
19789;BME280;10054;59.332;18.244;2023-04-05T07:46:10;101851.02;;;0.47;100.00
19789;BME280;10054;59.332;18.244;2023-04-05T07:48:39;101842.79;;;0.52;100.00
19789;BME280;10054;59.332;18.244;2023-04-05T07:51:09;101840.17;;;0.59;100.00
19789;BME280;10054;59.332;18.244;2023-04-05T07:53:37;101839.30;;;0.62;100.00
19789;BME280;10054;59.332;18.244;2023-04-05T07:56:08;101831.50;;;0.68;100.00
19789;BME280;10054;59.332;18.244;2023-04-05T07:58:37;101826.31;;;0.68;100.00
19789;BME280;10054;59.332;18.244;2023-04-05T08:01:08;101820.69;;;0.67;100.00
19789;BME280;10054;59.332;18.244;2023-04-05T08:03:38;101825.88;;;0.67;100.00
19789;BME280;10054;59.332;18.244;2023-04-05T08:06:15;101825.00;;;0.70;100.00
19789;BME280;10054;59.332;18.244;2023-04-05T08:08:47;101829.72;;;0.75;100.00
19789;BME280;10054;59.332;18.244;2023-04-05T08:11:16;101822.78;;;0.80;100.00
19789;BME280;10054;59.332;18.244;2023-04-05T08:13:44;101827.09;;;0.84;99.26
19789;BME280;10054;59.332;18.244;2023-04-05T08:16:13;101816.27;;;0.86;97.36
19789;BME280;10054;59.332;18.244;2023-04-05T08:18:42;101820.14;;;0.92;98.25
19789;BME280;10054;59.332;18.244;2023-04-05T08:21:11;101809.72;;;0.99;96.91
19789;BME280;10054;59.332;18.244;2023-04-05T08:23:40;101804.93;;;1.07;95.13
19789;BME280;10054;59.332;18.244;2023-04-05T08:26:09;101808.36;;;1.15;91.18
19789;BME280;10054;59.332;18.244;2023-04-05T08:28:38;101803.11;;;1.25;90.91
19789;BME280;10054;59.332;18.244;2023-04-05T08:31:07;101802.20;;;1.33;89.67
19789;BME280;10054;59.332;18.244;2023-04-05T08:33:35;101806.06;;;1.39;87.68
19789;BME280;10054;59.332;18.244;2023-04-05T08:36:06;101806.06;;;1.39;83.86
19789;BME280;10054;59.332;18.244;2023-04-05T08:38:35;101809.98;;;1.37;82.20
19789;BME280;10054;59.332;18.244;2023-04-05T08:41:23;101799.58;;;1.37;81.92
19789;BME280;10054;59.332;18.244;2023-04-05T08:44:02;101794.80;;;1.38;81.30
19789;BME280;10054;59.332;18.244;2023-04-05T08:46:33;101793.04;;;1.43;81.60
19789;BME280;10054;59.332;18.244;2023-04-05T08:49:06;101794.77;;;1.44;80.62
19789;BME280;10054;59.332;18.244;2023-04-05T08:51:38;101793.45;;;1.47;80.60
19789;BME280;10054;59.332;18.244;2023-04-05T08:54:07;101799.52;;;1.46;78.41
19789;BME280;10054;59.332;18.244;2023-04-05T08:56:38;101806.02;;;1.48;78.55
19789;BME280;10054;59.332;18.244;2023-04-05T08:59:10;101806.81;;;1.53;78.73
19789;BME280;10054;59.332;18.244;2023-04-05T09:01:44;101798.12;;;1.57;78.21
19789;BME280;10054;59.332;18.244;2023-04-05T09:04:16;101802.83;;;1.67;78.92
19789;BME280;10054;59.332;18.244;2023-04-05T09:06:48;101801.90;;;1.75;78.36
19789;BME280;10054;59.332;18.244;2023-04-05T09:09:19;101811.38;;;1.84;77.25
19789;BME280;10054;59.332;18.244;2023-04-05T09:11:48;101800.89;;;1.93;78.50
19789;BME280;10054;59.332;18.244;2023-04-05T09:14:17;101802.13;;;2.01;78.29
19789;BME280;10054;59.332;18.244;2023-04-05T09:16:46;101801.19;;;2.09;78.09
19789;BME280;10054;59.332;18.244;2023-04-05T09:19:15;101799.84;;;2.14;79.09
19789;BME280;10054;59.332;18.244;2023-04-05T09:22:01;101798.55;;;2.14;79.48
19789;BME280;10054;59.332;18.244;2023-04-05T09:24:34;101806.78;;;2.15;82.22
19789;BME280;10054;59.332;18.244;2023-04-05T09:27:05;101802.45;;;2.14;83.62
19789;BME280;10054;59.332;18.244;2023-04-05T09:29:34;101798.64;;;2.03;85.75
19789;BME280;10054;59.332;18.244;2023-04-05T09:32:06;101793.98;;;1.89;88.72
19789;BME280;10054;59.332;18.244;2023-04-05T09:34:36;101801.48;;;1.73;91.62
19789;BME280;10054;59.332;18.244;2023-04-05T09:37:17;101814.98;;;1.63;93.80
19789;BME280;10054;59.332;18.244;2023-04-05T09:39:48;101802.92;;;1.51;95.33
19789;BME280;10054;59.332;18.244;2023-04-05T09:42:19;101809.52;;;1.41;97.34
19789;BME280;10054;59.332;18.244;2023-04-05T09:44:56;101806.53;;;1.34;98.43
19789;BME280;10054;59.332;18.244;2023-04-05T09:47:29;101812.24;;;1.18;100.00
19789;BME280;10054;59.332;18.244;2023-04-05T09:50:01;101807.91;;;1.18;100.00
19789;BME280;10054;59.332;18.244;2023-04-05T09:52:32;101802.72;;;1.17;100.00
19789;BME280;10054;59.332;18.244;2023-04-05T09:55:04;101805.31;;;1.17;100.00
19789;BME280;10054;59.332;18.244;2023-04-05T09:57:36;101808.81;;;1.11;100.00
19789;BME280;10054;59.332;18.244;2023-04-05T10:00:16;101807.09;;;1.06;100.00
19789;BME280;10054;59.332;18.244;2023-04-05T10:02:39;101805.41;;;0.94;100.00
19789;BME280;10054;59.332;18.244;2023-04-05T10:05:09;101798.05;;;0.96;100.00
19789;BME280;10054;59.332;18.244;2023-04-05T10:07:43;101808.47;;;0.89;100.00
19789;BME280;10054;59.332;18.244;2023-04-05T10:10:12;101813.25;;;0.80;100.00
19789;BME280;10054;59.332;18.244;2023-04-05T10:12:42;101813.27;;;0.76;100.00
19789;BME280;10054;59.332;18.244;2023-04-05T10:15:14;101811.97;;;0.76;100.00
19789;BME280;10054;59.332;18.244;2023-04-05T10:17:51;101822.84;;;0.72;100.00
19789;BME280;10054;59.332;18.244;2023-04-05T10:20:21;101826.73;;;0.71;100.00
19789;BME280;10054;59.332;18.244;2023-04-05T10:23:03;101827.17;;;0.70;100.00
19789;BME280;10054;59.332;18.244;2023-04-05T10:28:37;101825.45;;;0.68;100.00
19789;BME280;10054;59.332;18.244;2023-04-05T10:33:46;101821.13;;;0.63;100.00
19789;BME280;10054;59.332;18.244;2023-04-05T10:39:27;101824.17;;;0.54;100.00
19789;BME280;10054;59.332;18.244;2023-04-05T10:42:46;101825.48;;;0.49;100.00
19789;BME280;10054;59.332;18.244;2023-04-05T10:44:31;101826.35;;;0.47;100.00
19789;BME280;10054;59.332;18.244;2023-04-05T10:47:02;101827.66;;;0.45;100.00
19789;BME280;10054;59.332;18.244;2023-04-05T10:49:41;101829.39;;;0.43;100.00
19789;BME280;10054;59.332;18.244;2023-04-05T10:52:10;101826.80;;;0.39;100.00
19789;BME280;10054;59.332;18.244;2023-04-05T10:54:40;101833.29;;;0.36;100.00
19789;BME280;10054;59.332;18.244;2023-04-05T10:57:11;101830.70;;;0.34;100.00
19789;BME280;10054;59.332;18.244;2023-04-05T10:59:42;101832.86;;;0.31;100.00
19789;BME280;10054;59.332;18.244;2023-04-05T11:02:13;101828.97;;;0.27;100.00
19789;BME280;10054;59.332;18.244;2023-04-05T11:04:42;101828.11;;;0.29;100.00
19789;BME280;10054;59.332;18.244;2023-04-05T11:07:16;101828.10;;;0.34;100.00
19789;BME280;10054;59.332;18.244;2023-04-05T11:09:54;101831.56;;;0.36;100.00
19789;BME280;10054;59.332;18.244;2023-04-05T11:18:09;101827.66;;;0.44;100.00
19789;BME280;10054;59.332;18.244;2023-04-05T11:20:47;101826.78;;;0.48;100.00
19789;BME280;10054;59.332;18.244;2023-04-05T11:23:19;101827.66;;;0.44;100.00
19789;BME280;10054;59.332;18.244;2023-04-05T11:25:56;101829.83;;;0.40;100.00
19789;BME280;10054;59.332;18.244;2023-04-05T11:28:33;101820.75;;;0.33;100.00
19789;BME280;10054;59.332;18.244;2023-04-05T11:31:14;101833.28;;;0.40;100.00
19789;BME280;10054;59.332;18.244;2023-04-05T11:42:09;101838.92;;;0.32;100.00
19789;BME280;10054;59.332;18.244;2023-04-05T11:44:45;101840.21;;;0.35;100.00
19789;BME280;10054;59.332;18.244;2023-04-05T11:47:18;101833.72;;;0.40;100.00
19789;BME280;10054;59.332;18.244;2023-04-05T11:49:50;101835.01;;;0.44;100.00
19789;BME280;10054;59.332;18.244;2023-04-05T11:52:20;101840.63;;;0.45;100.00
19789;BME280;10054;59.332;18.244;2023-04-05T11:54:51;101831.55;;;0.44;100.00
19789;BME280;10054;59.332;18.244;2023-04-05T11:57:21;101832.41;;;0.47;100.00
19789;BME280;10054;59.332;18.244;2023-04-05T11:59:51;101827.21;;;0.52;100.00
19789;BME280;10054;59.332;18.244;2023-04-05T12:02:20;101831.97;;;0.52;100.00
19789;BME280;10054;59.332;18.244;2023-04-05T12:04:56;101825.04;;;0.56;100.00
19789;BME280;10054;59.332;18.244;2023-04-05T12:07:26;101821.58;;;0.57;100.00
19789;BME280;10054;59.332;18.244;2023-04-05T12:12:35;101834.99;;;0.55;100.00
19789;BME280;10054;59.332;18.244;2023-04-05T12:15:06;101826.35;;;0.48;100.00
19789;BME280;10054;59.332;18.244;2023-04-05T12:17:47;101828.08;;;0.49;100.00
19789;BME280;10054;59.332;18.244;2023-04-05T12:20:24;101824.62;;;0.49;100.00
19789;BME280;10054;59.332;18.244;2023-04-05T12:22:54;101823.34;;;0.35;100.00
19789;BME280;10054;59.332;18.244;2023-04-05T12:25:24;101828.10;;;0.32;100.00
19789;BME280;10054;59.332;18.244;2023-04-05T12:27:53;101823.34;;;0.37;100.00
19789;BME280;10054;59.332;18.244;2023-04-05T12:30:23;101827.23;;;0.40;100.00
19789;BME280;10054;59.332;18.244;2023-04-05T12:32:55;101825.50;;;0.40;100.00
19789;BME280;10054;59.332;18.244;2023-04-05T12:35:29;101818.56;;;0.45;100.00
19789;BME280;10054;59.332;18.244;2023-04-05T12:38:02;101818.12;;;0.49;100.00
19789;BME280;10054;59.332;18.244;2023-04-05T12:40:34;101818.14;;;0.44;100.00
19789;BME280;10054;59.332;18.244;2023-04-05T12:43:07;101815.55;;;0.38;100.00
19789;BME280;10054;59.332;18.244;2023-04-05T12:45:36;101814.69;;;0.38;100.00
19789;BME280;10054;59.332;18.244;2023-04-05T12:48:11;101806.04;;;0.36;100.00
19789;BME280;10054;59.332;18.244;2023-04-05T12:50:46;101811.66;;;0.33;100.00
19789;BME280;10054;59.332;18.244;2023-04-05T12:53:19;101811.66;;;0.35;100.00
19789;BME280;10054;59.332;18.244;2023-04-05T12:55:50;101801.28;;;0.37;100.00
19789;BME280;10054;59.332;18.244;2023-04-05T12:58:20;101801.70;;;0.41;100.00
19789;BME280;10054;59.332;18.244;2023-04-05T13:00:49;101801.71;;;0.36;100.00
19789;BME280;10054;59.332;18.244;2023-04-05T13:03:19;101798.69;;;0.32;100.00
19789;BME280;10054;59.332;18.244;2023-04-05T13:05:48;101798.69;;;0.33;100.00
19789;BME280;10054;59.332;18.244;2023-04-05T13:08:17;101789.61;;;0.32;100.00
19789;BME280;10054;59.332;18.244;2023-04-05T13:10:47;101807.77;;;0.30;100.00
19789;BME280;10054;59.332;18.244;2023-04-05T13:13:17;101799.13;;;0.27;100.00
19789;BME280;10054;59.332;18.244;2023-04-05T13:15:49;101793.07;;;0.26;100.00
19789;BME280;10054;59.332;18.244;2023-04-05T13:18:18;101792.63;;;0.33;100.00
19789;BME280;10054;59.332;18.244;2023-04-05T13:20:46;101793.06;;;0.36;100.00
19789;BME280;10054;59.332;18.244;2023-04-05T13:23:15;101796.52;;;0.39;100.00
19789;BME280;10054;59.332;18.244;2023-04-05T13:25:44;101793.93;;;0.31;100.00